Aviation Digital Data Service (ADDS)

Output produced by METARs form (1207 UTC 24 March 2017)
found at http://www.aviationweather.gov/adds/metars/
 
FYWE 241000Z 18007KT 9999 SCT045 27/10 Q1025
TAF FYWE 241100Z 2412/2421 18007KT 9999 SCT045 
     TEMPO 2413/2415 26003KT -RA FEW035CB 
     BECMG 2416/2418 NSW NSC 
       
FYGF 241000Z 12005KT 9999 SCT040 26/15 Q1024
TAF FYGF 241100Z 2412/2421 12005KT 9999 SCT040 
     TEMPO 2413/2418 -TSRA FEW040CB 
     BECMG 2419/2421 NSW NSC 
       
FYWH 241000Z 12005KT 9999 SCT045 27/13 Q1025 NOSIG
TAF FYWH 241000Z 2412/2518 13006KT 9999 BKN045 
     TEMPO 2412/2418 -RA FEW035CB 
     BECMG 2500/2502 06003KT NSW NSC 
     BECMG 2509/2511 13003KT SCT050 
     BECMG 2512/2514 BKN040 
       
FYKM 240800Z 07003KT CAVOK 28/19 Q1019
FYKT 241000Z 20008KT CAVOK 23/07 Q1022
TAF FYKT 241000Z 2412/2518 20008KT CAVOK 
     BECMG 2416/2418 NSC 
     BECMG 2423/2501 16003KT 
     BECMG 2509/2511 10005KT 
       
FYLZ 241000Z AUTO 19023KT //// // ////// 27/14 Q1016
TAF FYLZ 241100Z 2412/2421 19023KT CAVOK 
     BECMG 2419/2421 16013KT 
       
FYML 241000Z AUTO 21006KT //// // ////// 29/09 Q1022
FYOA 241000Z 07005KT CAVOK 30/17 Q1019
TAF FYOA 241100Z 2412/2421 07005KT CAVOK 
     BECMG 2413/2415 BKN040 
     BECMG 2416/2418 17005KT NSC 
       
FYRU 241000Z AUTO 04002KT //// // ////// 26/18 Q1022
TAF FYRU 241100Z 2412/2421 00000KT 9999 SCT040 
     BECMG 2412/2414 13004KT BKN030 
     BECMG 2416/2418 NSC 
       
FYWB 241000Z AUTO 28005KT //// 24/15 Q1015
TAF FYWB 241000Z 2412/2518 31004KT CAVOK 
     BECMG 2416/2418 25003KT 9999 BKN012 
     TEMPO 2420/2503 06003KT 0900 FG OVC010 
     BECMG 2508/2510 24004KT 9999 NSW BKN015 
     BECMG 2512/2514 CAVOK